Norman, Minnesota
Current Conditions -  °F | °C
As of 11:33 PM on Wednesday 26 Nov 2014 (Local Time) from KMZH Reporting Station
Clear Clear  
Wind Chill: -9°   Ceiling: Unl
Heat Index:   Visibility: 10mi
Dew Point: -4°   Wind: 7mph
Humidity: 72%   Direction: 360°N
Pressure: 30.4"   Gusts: NA
Location:  46.2985°N, 92.833°W
Report Text: KMZH 270533Z AUTO 36006KT 10SM CLR M16/M20 A3040 RMK AO2
Loading
Personal Weather Stations






























Interactive Weather Map New forecast layout! Learn more

10-Day Weather Forecast

Advertisements
Track Severe Weather on mobile